Time;durP1;ratioP1;P1;durP2;ratioP2;P2;SDS_P1;SDS_P2;PMS_P1;PMS_P2;Temp;Humidity;BMP_temperature;BMP_pressure;BME280_temperature;BME280_humidity;BME280_pressure;Samples;Min_cycle;Max_cycle;Signal;HPM_P1;HPM_P2
2022/02/20 00:01:54;;;;;;;;;;;6.30;99.90;;;6.42;90.79;100881.25;5113692;28;20319;-74
2022/02/20 00:04:22;;;;;;;;;;;6.30;99.90;;;6.54;90.79;100894.53;5113441;28;20355;-74
2022/02/20 00:06:50;;;;;;;;;;;6.40;99.90;;;6.63;90.51;100897.25;5113609;28;19927;-74
2022/02/20 00:09:20;;;;;;;;;;;6.50;99.90;;;6.41;90.53;100864.59;5113596;28;19950;-75
2022/02/20 00:11:49;;;;;;;;;;;6.50;99.90;;;6.66;90.04;100913.09;5113856;28;19919;-74
2022/02/20 00:14:17;;;;;;;;;;;6.50;99.90;;;6.63;89.46;100929.69;5113684;28;19973;-74
2022/02/20 00:16:46;;;;;;;;;;;6.50;99.90;;;6.66;89.31;100936.75;5117805;28;19927;-74
2022/02/20 00:19:14;;;;;;;;;;;6.50;99.90;;;6.57;87.93;100928.72;5117626;28;20018;-75
2022/02/20 00:21:42;;;;;;;;;;;6.50;99.90;;;6.41;87.38;100932.03;5117654;28;19919;-74
2022/02/20 00:24:10;;;;;;;;;;;6.40;99.90;;;6.61;87.17;100935.78;5117343;27;20019;-74
2022/02/20 00:26:40;;;;;;;;;;;6.50;99.90;;;6.27;86.81;100893.31;5117600;28;20346;-75
2022/02/20 00:29:08;;;;;;;;;;;6.50;99.90;;;5.88;86.56;100826.28;5117495;28;19926;-75
2022/02/20 00:31:36;;;;;;;;;;;6.50;99.90;;;6.79;86.63;100938.66;5117439;28;20430;-74
2022/02/20 00:34:04;;;;;;;;;;;6.60;99.90;;;6.94;86.43;100942.34;5116116;28;20018;-75
2022/02/20 00:36:33;;;;;;;;;;;6.70;99.90;;;6.91;85.68;100944.06;5133212;27;19920;-75
2022/02/20 00:39:01;;;;;;;;;;;6.80;99.90;;;6.93;85.50;100940.56;5117125;28;19923;-75
2022/02/20 00:41:31;;;;;;;;;;;6.80;99.90;;;6.92;85.58;100935.28;5115921;28;19920;-75
2022/02/20 00:44:00;;;;;;;;;;;6.80;99.90;;;7.05;85.13;100979.25;5117236;28;19949;-75
2022/02/20 00:46:29;;;;;;;;;;;6.90;99.90;;;6.20;84.95;100895.84;5117115;28;19919;-74
2022/02/20 00:48:57;;;;;;;;;;;6.90;99.90;;;6.91;85.43;100941.44;5115865;28;20464;-75
2022/02/20 00:51:25;;;;;;;;;;;6.90;99.90;;;7.04;85.61;100956.47;5115846;28;20022;-74
2022/02/20 00:53:54;;;;;;;;;;;6.90;99.90;;;7.03;85.31;100931.00;5115808;28;20014;-74
2022/02/20 00:56:22;;;;;;;;;;;7.00;99.90;;;7.32;85.03;100952.38;5117077;28;19923;-75
2022/02/20 00:58:50;;;;;;;;;;;7.10;99.90;;;7.14;84.79;100943.41;5116964;28;20296;-74
2022/02/20 01:01:20;;;;;;;;;;;7.10;99.90;;;7.31;84.14;100959.38;5117049;28;20017;-75
2022/02/20 01:03:49;;;;;;;;;;;7.20;99.90;;;7.36;83.67;100957.66;5116870;28;19934;-75
2022/02/20 01:06:20;;;;;;;;;;;7.20;99.90;;;7.46;82.94;100954.25;5132808;27;19969;-74
2022/02/20 01:08:48;;;;;;;;;;;7.30;99.90;;;7.48;82.39;100955.16;5115373;28;19920;-60
2022/02/20 01:11:16;;;;;;;;;;;7.30;99.90;;;7.51;82.17;100951.69;5115512;28;19919;-59
2022/02/20 01:13:45;;;;;;;;;;;7.40;99.90;;;7.46;82.22;100964.78;5148600;27;19977;-59
2022/02/20 01:16:14;;;;;;;;;;;7.30;99.90;;;7.51;81.36;100965.69;5114317;28;19920;-60
2022/02/20 01:18:44;;;;;;;;;;;7.30;99.90;;;7.44;81.46;100966.53;5115507;28;19972;-58
2022/02/20 01:21:12;;;;;;;;;;;7.30;99.90;;;7.48;81.50;100962.16;5115462;28;20010;-59
2022/02/20 01:23:41;;;;;;;;;;;7.30;99.90;;;7.52;81.76;100970.13;5115171;27;19959;-59
2022/02/20 01:26:09;;;;;;;;;;;7.40;99.90;;;7.70;81.88;100970.28;5114147;28;20014;-61
2022/02/20 01:28:37;;;;;;;;;;;7.50;99.90;;;7.62;81.86;100966.72;5114867;28;20427;-59
2022/02/20 01:31:05;;;;;;;;;;;7.50;99.90;;;7.59;82.30;100966.66;5113987;28;20379;-59
2022/02/20 01:33:33;;;;;;;;;;;7.50;99.90;;;7.59;81.63;100961.41;5113796;28;20019;-59
2022/02/20 01:36:06;;;;;;;;;;;7.50;99.90;;;6.86;81.71;100832.69;5113754;28;19919;-59
2022/02/20 01:38:34;;;;;;;;;;;7.40;99.90;;;7.33;81.76;100910.31;5130796;27;20022;-59
2022/02/20 01:41:04;;;;;;;;;;;7.50;99.90;;;7.56;81.36;100932.44;5114979;28;20415;-59
2022/02/20 01:43:32;;;;;;;;;;;7.50;99.90;;;7.51;81.24;100923.59;5130700;27;19920;-59
2022/02/20 01:46:01;;;;;;;;;;;7.50;99.90;;;7.69;80.64;100950.09;5148036;27;19976;-59
2022/02/20 01:48:35;;;;;;;;;;;7.60;99.90;;;7.72;80.69;100952.75;5113525;28;19919;-59
2022/02/20 01:51:06;;;;;;;;;;;7.60;99.90;;;7.75;80.20;100958.03;5113776;28;19919;-59
2022/02/20 01:53:36;;;;;;;;;;;7.60;99.90;;;7.77;79.99;100964.19;5130597;27;20351;-59
2022/02/20 01:56:05;;;;;;;;;;;7.70;99.90;;;7.65;80.32;100966.72;5115087;28;20018;-59
2022/02/20 01:59:03;;;;;;;;;;;7.60;99.90;;;7.64;79.87;100956.19;5094356;28;19939;-60
2022/02/20 02:01:46;;;;;;;;;;;7.50;99.90;;;7.72;80.34;100963.28;5130684;27;20300;-59
2022/02/20 02:04:23;;;;;;;;;;;7.60;99.90;;;7.54;80.08;100952.59;5113170;28;19965;-60
2022/02/20 02:07:01;;;;;;;;;;;7.40;99.90;;;7.47;79.70;100949.91;5147577;27;19920;-59
2022/02/20 02:09:50;;;;;;;;;;;7.40;99.90;;;7.68;79.40;100955.34;5130411;27;19920;-59
2022/02/20 02:12:38;;;;;;;;;;;7.50;99.90;;;7.66;79.63;100923.75;5114371;28;19920;-59
2022/02/20 02:15:24;;;;;;;;;;;7.60;99.90;;;7.83;79.15;100948.47;5114446;28;19934;-59
2022/02/20 02:18:00;;;;;;;;;;;7.70;99.90;;;7.84;79.46;100958.09;5113101;28;20282;-58
2022/02/20 02:20:35;;;;;;;;;;;7.70;99.90;;;7.92;79.22;100950.25;5130090;27;19928;-59
2022/02/20 02:23:17;;;;;;;;;;;7.70;99.90;;;8.01;79.61;100953.84;5114356;28;19919;-59
2022/02/20 02:26:02;;;;;;;;;;;7.80;99.90;;;8.03;79.13;100949.47;5114278;28;20365;-59
2022/02/20 02:28:45;;;;;;;;;;;7.80;99.90;;;8.06;79.41;100946.88;5114254;28;19920;-60
2022/02/20 02:31:16;;;;;;;;;;;7.80;99.90;;;8.07;79.34;100930.19;5114117;28;19919;-59
2022/02/20 02:33:46;;;;;;;;;;;7.80;99.90;;;7.95;79.29;100930.13;5129601;27;19919;-59
2022/02/20 02:36:15;;;;;;;;;;;7.80;99.90;;;7.89;80.07;100911.63;5112836;28;19964;-60
2022/02/20 02:38:44;;;;;;;;;;;7.70;99.90;;;7.79;80.59;100907.19;5129601;27;19965;-59
2022/02/20 02:41:17;;;;;;;;;;;7.60;99.90;;;7.83;81.03;100902.81;5112984;28;19955;-59
2022/02/20 02:43:52;;;;;;;;;;;7.60;99.90;;;7.70;81.43;100908.84;5129842;27;19919;-59
2022/02/20 02:46:21;;;;;;;;;;;7.50;99.90;;;7.46;81.52;100883.22;5113899;28;19927;-59
2022/02/20 02:48:51;;;;;;;;;;;7.40;99.90;;;7.59;81.82;100906.13;5112588;28;19969;-60
2022/02/20 02:51:21;;;;;;;;;;;7.30;99.90;;;7.51;82.06;100909.59;5129496;27;20311;-59
2022/02/20 02:53:51;;;;;;;;;;;7.30;99.90;;;7.44;82.51;100921.78;5112400;28;19965;-59
2022/02/20 02:56:21;;;;;;;;;;;7.20;99.90;;;7.39;82.79;100913.00;5112306;28;19919;-59
2022/02/20 02:58:50;;;;;;;;;;;7.20;99.90;;;7.33;83.04;100907.66;5112469;28;19919;-59
2022/02/20 03:01:20;;;;;;;;;;;7.10;99.90;;;7.34;83.28;100913.81;5129356;27;19930;-59
2022/02/20 03:03:49;;;;;;;;;;;7.10;99.90;;;7.29;83.25;100903.25;5113313;28;19920;-59
2022/02/20 03:06:21;;;;;;;;;;;7.10;99.90;;;7.35;83.22;100911.19;5112142;28;19981;-59
2022/02/20 03:09:01;;;;;;;;;;;7.10;99.90;;;7.32;83.33;100892.72;5112203;28;20334;-59
2022/02/20 03:11:30;;;;;;;;;;;7.10;99.90;;;7.23;83.28;100885.66;5112467;28;19919;-59
2022/02/20 03:13:59;;;;;;;;;;;7.00;99.90;;;7.20;84.07;100868.97;5112172;28;19955;-59
2022/02/20 03:16:29;;;;;;;;;;;7.00;99.90;;;7.22;84.52;100854.06;5129308;27;19920;-59
2022/02/20 03:18:57;;;;;;;;;;;7.00;99.90;;;7.31;84.87;100864.69;5112010;28;20010;-60
2022/02/20 03:21:25;;;;;;;;;;;7.10;99.90;;;7.20;84.48;100850.56;5129470;27;19926;-59
2022/02/20 03:23:54;;;;;;;;;;;7.10;99.90;;;7.28;84.71;100862.00;5113435;28;19923;-59
2022/02/20 03:26:23;;;;;;;;;;;7.10;99.90;;;7.21;84.56;100861.09;5113398;28;20451;-59
2022/02/20 03:28:56;;;;;;;;;;;7.10;99.90;;;7.09;84.91;100846.94;5129259;28;19920;-59
2022/02/20 03:31:27;;;;;;;;;;;6.90;99.90;;;7.08;85.06;100848.66;5129445;27;19981;-59
2022/02/20 03:33:56;;;;;;;;;;;6.90;99.90;;;7.08;85.42;100855.72;5112119;28;19931;-59
2022/02/20 03:36:25;;;;;;;;;;;6.90;99.90;;;7.08;85.47;100837.31;5112085;28;19926;-58
2022/02/20 03:38:53;;;;;;;;;;;6.90;99.90;;;7.10;85.49;100839.03;5113171;28;19919;-59
2022/02/20 03:41:28;;;;;;;;;;;6.90;99.90;;;7.24;86.09;100839.16;5113035;28;19919;-59
2022/02/20 03:43:56;;;;;;;;;;;7.00;99.90;;;7.20;86.02;100827.75;5111873;28;20334;-60
2022/02/20 03:46:36;;;;;;;;;;;7.00;99.90;;;7.18;86.21;100833.88;5146276;27;19920;-59
2022/02/20 03:49:04;;;;;;;;;;;7.00;99.90;;;7.12;85.88;100804.91;5113140;28;19920;-59
2022/02/20 03:51:56;;;;;;;;;;;7.10;99.90;;;7.28;85.91;100817.28;5115996;28;19919;-59
2022/02/20 03:54:35;;;;;;;;;;;7.10;99.90;;;7.23;86.36;100817.28;5115553;28;19919;-59
2022/02/20 03:57:05;;;;;;;;;;;7.10;99.90;;;7.21;86.44;100815.47;5115721;28;19920;-59
2022/02/20 03:59:56;;;;;;;;;;;7.10;99.90;;;7.14;87.14;100808.44;5116724;28;19920;-59
2022/02/20 04:02:30;;;;;;;;;;;7.00;99.90;;;7.12;87.89;100803.13;5115635;28;20407;-59
2022/02/20 04:04:59;;;;;;;;;;;7.00;99.90;;;7.10;88.13;100796.13;5115451;28;19930;-59
2022/02/20 04:07:28;;;;;;;;;;;7.00;99.90;;;7.03;88.42;100795.16;5132740;27;19920;-58
2022/02/20 04:09:56;;;;;;;;;;;6.90;99.90;;;6.95;88.79;100783.69;5115500;28;19920;-59
2022/02/20 04:12:26;;;;;;;;;;;6.90;99.90;;;6.93;89.11;100769.66;5132620;27;19968;-59
2022/02/20 04:14:54;;;;;;;;;;;6.80;99.90;;;7.00;89.32;100773.22;5132736;27;19919;-60
2022/02/20 04:17:24;;;;;;;;;;;6.80;99.90;;;6.91;90.18;100765.28;5115364;28;19920;-59
2022/02/20 04:19:53;;;;;;;;;;;6.80;99.90;;;6.88;90.70;100736.31;5132454;27;19920;-59
2022/02/20 04:22:22;;;;;;;;;;;6.80;99.90;;;6.82;91.16;100725.75;5115200;28;19924;-59
2022/02/20 04:24:50;;;;;;;;;;;6.70;99.90;;;6.80;91.62;100724.84;5132648;27;20384;-61
2022/02/20 04:27:19;;;;;;;;;;;6.70;99.90;;;6.93;92.23;100716.22;5115127;28;19924;-59
2022/02/20 04:29:49;;;;;;;;;;;6.80;99.90;;;6.94;92.52;100720.59;5132259;27;19927;-59
2022/02/20 04:32:17;;;;;;;;;;;6.80;99.90;;;6.85;92.93;100708.25;5115327;28;19927;-59
2022/02/20 04:34:46;;;;;;;;;;;6.80;99.90;;;6.95;93.20;100707.47;5132080;27;19934;-60
2022/02/20 04:37:15;;;;;;;;;;;6.80;99.90;;;6.90;93.68;100719.69;5114926;28;19927;-59
2022/02/20 04:39:44;;;;;;;;;;;6.80;99.90;;;7.06;93.84;100707.56;5114581;28;20022;-59
2022/02/20 04:42:12;;;;;;;;;;;6.90;99.90;;;7.11;94.33;100696.19;5115895;27;20018;-59
2022/02/20 04:44:55;;;;;;;;;;;6.90;99.90;;;7.16;94.22;100675.19;5114852;28;20389;-59
2022/02/20 04:47:31;;;;;;;;;;;7.00;99.90;;;7.13;94.61;100673.41;5131935;27;19967;-58
2022/02/20 04:49:59;;;;;;;;;;;7.00;99.90;;;7.16;95.07;100659.41;5116431;28;20022;-59
2022/02/20 04:52:47;;;;;;;;;;;7.10;99.90;;;7.22;95.67;100644.53;5115766;28;19942;-60
2022/02/20 04:55:22;;;;;;;;;;;7.10;99.90;;;7.25;96.07;100628.78;5149051;27;20018;-59
2022/02/20 04:57:50;;;;;;;;;;;7.20;99.90;;;7.16;96.88;100617.34;5114791;28;19926;-59
2022/02/20 05:00:22;;;;;;;;;;;7.10;99.90;;;7.22;97.89;100622.59;5114616;28;20371;-59
2022/02/20 05:02:59;;;;;;;;;;;7.10;99.90;;;7.25;98.31;100623.50;5116123;28;19920;-59
2022/02/20 05:05:38;;;;;;;;;;;7.10;99.90;;;7.32;98.88;100594.63;5114283;28;19920;-59
2022/02/20 05:08:07;;;;;;;;;;;7.20;99.90;;;7.39;99.47;100591.13;5131508;27;19920;-59
2022/02/20 05:10:36;;;;;;;;;;;7.30;99.90;;;7.46;99.72;100585.88;5114314;28;20399;-59
2022/02/20 05:13:06;;;;;;;;;;;7.30;99.90;;;7.51;99.98;100581.50;5148669;27;19919;-60
2022/02/20 05:15:35;;;;;;;;;;;7.40;99.90;;;7.57;100.00;100567.50;5114394;28;19949;-59
2022/02/20 05:18:04;;;;;;;;;;;7.40;99.90;;;7.60;100.00;100568.41;5113931;28;19920;-59
2022/02/20 05:20:33;;;;;;;;;;;7.50;99.90;;;7.73;100.00;100558.75;5115289;28;19968;-59
2022/02/20 05:23:01;;;;;;;;;;;7.50;99.90;;;7.74;100.00;100565.78;5131356;27;20403;-61
2022/02/20 05:25:29;;;;;;;;;;;7.60;99.90;;;7.83;100.00;100574.59;5131277;27;19920;-62
2022/02/20 05:27:58;;;;;;;;;;;7.60;99.90;;;7.88;100.00;100575.47;5114484;28;20307;-60
2022/02/20 05:30:35;;;;;;;;;;;7.70;99.90;;;7.95;100.00;100553.53;5148338;27;19923;-59
2022/02/20 05:33:16;;;;;;;;;;;7.80;99.90;;;8.03;100.00;100532.47;5130946;27;19920;-59
2022/02/20 05:35:44;;;;;;;;;;;7.80;99.90;;;8.07;100.00;100534.25;5131008;27;20376;-59
2022/02/20 05:38:13;;;;;;;;;;;7.90;99.90;;;8.19;100.00;100548.28;5148438;27;19927;-60
2022/02/20 05:40:43;;;;;;;;;;;8.00;99.90;;;8.20;100.00;100530.72;5114378;28;20287;-60
2022/02/20 05:43:14;;;;;;;;;;;8.00;99.90;;;8.33;100.00;100542.16;5114008;28;19926;-58
2022/02/20 05:45:47;;;;;;;;;;;8.10;99.90;;;8.35;100.00;100543.91;5114040;28;19988;-59
2022/02/20 05:48:21;;;;;;;;;;;8.10;99.90;;;8.37;100.00;100543.91;5113536;28;19926;-59
2022/02/20 05:51:16;;;;;;;;;;;8.20;99.90;;;8.42;100.00;100540.38;5113435;27;19924;-59
2022/02/20 05:54:07;;;;;;;;;;;8.20;99.90;;;8.46;100.00;100513.16;5113641;28;19920;-59
2022/02/20 05:56:35;;;;;;;;;;;8.30;99.90;;;8.50;100.00;100522.81;5114910;28;20344;-59
2022/02/20 05:59:05;;;;;;;;;;;8.30;99.90;;;8.47;100.00;100492.94;5113530;28;19919;-59
2022/02/20 06:01:37;;;;;;;;;;;8.40;99.90;;;8.64;100.00;100506.97;5130513;27;19941;-60
2022/02/20 06:04:09;;;;;;;;;;;8.40;99.90;;;8.66;100.00;100510.47;5113624;28;19926;-59
2022/02/20 06:06:58;;;;;;;;;;;8.40;99.90;;;8.71;100.00;100508.72;5115391;28;19959;-59
2022/02/20 06:09:43;;;;;;;;;;;8.50;99.90;;;8.77;100.00;100499.00;5113540;28;19992;-59
2022/02/20 06:12:25;;;;;;;;;;;8.60;99.90;;;8.81;100.00;100497.22;5129613;27;19920;-59
2022/02/20 06:14:57;;;;;;;;;;;8.60;99.90;;;8.90;100.00;100494.59;5114775;28;19923;-59
2022/02/20 06:17:48;;;;;;;;;;;8.70;99.90;;;8.96;100.00;100481.38;5130303;27;19920;-59
2022/02/20 06:20:34;;;;;;;;;;;8.80;99.90;;;9.11;100.00;100483.94;5114795;28;19927;-59
2022/02/20 06:23:21;;;;;;;;;;;8.90;99.90;;;9.20;100.00;100494.44;5130436;27;20377;-60
2022/02/20 06:26:10;;;;;;;;;;;9.00;99.90;;;9.28;100.00;100487.38;5113915;28;19920;-59
2022/02/20 06:28:38;;;;;;;;;;;9.10;99.90;;;9.38;100.00;100462.69;5147329;27;19949;-59
2022/02/20 06:31:07;;;;;;;;;;;9.20;99.90;;;9.47;100.00;100481.09;5112508;28;19919;-60
2022/02/20 06:33:40;;;;;;;;;;;9.20;99.90;;;9.52;100.00;100474.03;5130069;27;19972;-59
2022/02/20 06:36:12;;;;;;;;;;;9.40;99.90;;;9.61;100.00;100476.59;5112857;28;19919;-59
2022/02/20 06:38:44;;;;;;;;;;;9.40;99.90;;;9.74;100.00;100478.25;5113095;28;19927;-59
2022/02/20 06:41:13;;;;;;;;;;;9.50;99.90;;;9.76;100.00;100476.50;5112600;28;19920;-60
2022/02/20 06:43:48;;;;;;;;;;;9.60;99.90;;;9.84;100.00;100479.06;5112617;28;19927;-59
2022/02/20 06:46:36;;;;;;;;;;;9.60;99.90;;;9.88;100.00;100489.59;5113917;28;19942;-59
2022/02/20 06:49:29;;;;;;;;;;;9.70;99.90;;;9.93;100.00;100482.50;5129615;27;20288;-60
2022/02/20 06:52:02;;;;;;;;;;;9.70;99.90;;;9.92;100.00;100472.84;5113512;28;19924;-59
2022/02/20 06:54:51;;;;;;;;;;;9.70;99.90;;;9.94;100.00;100467.53;5146932;27;20351;-59
2022/02/20 06:57:22;;;;;;;;;;;9.70;99.90;;;9.99;100.00;100460.44;5112241;28;20373;-60
2022/02/20 06:59:50;;;;;;;;;;;9.80;99.90;;;9.98;100.00;100458.72;5113609;28;19924;-59
2022/02/20 07:02:19;;;;;;;;;;;9.80;99.90;;;10.01;100.00;100435.78;5113464;28;20018;-59
2022/02/20 07:04:48;;;;;;;;;;;9.80;99.90;;;9.42;100.00;100316.63;5113331;28;19955;-59
2022/02/20 07:07:16;;;;;;;;;;;9.80;99.90;;;10.06;100.00;100438.38;5113373;28;20393;-60
2022/02/20 07:09:44;;;;;;;;;;;9.80;99.90;;;10.06;100.00;100435.75;5129147;27;19923;-59
2022/02/20 07:12:13;;;;;;;;;;;9.80;99.90;;;10.10;100.00;100465.69;5113110;28;20362;-59
2022/02/20 07:14:41;;;;;;;;;;;9.90;99.90;;;10.16;100.00;100460.34;5113103;28;19919;-59
2022/02/20 07:17:09;;;;;;;;;;;9.90;99.90;;;10.13;100.00;100460.34;5145908;27;19919;-59
2022/02/20 07:19:37;;;;;;;;;;;9.90;99.90;;;10.15;100.00;100448.88;5112993;28;19923;-59
2022/02/20 07:22:07;;;;;;;;;;;9.90;99.90;;;10.23;100.00;100456.75;5112880;28;19926;-60
2022/02/20 07:24:35;;;;;;;;;;;10.00;99.90;;;10.27;100.00;100450.53;5112375;28;20016;-59
2022/02/20 07:27:03;;;;;;;;;;;10.00;99.90;;;10.26;100.00;100436.44;5113089;28;20380;-59
2022/02/20 07:29:31;;;;;;;;;;;10.10;99.90;;;10.30;100.00;100424.09;5111656;28;19977;-60
2022/02/20 07:32:00;;;;;;;;;;;10.00;99.90;;;10.22;100.00;100402.16;5113074;28;19920;-60
2022/02/20 07:34:28;;;;;;;;;;;10.00;99.90;;;10.29;100.00;100423.22;5112810;28;19927;-60
2022/02/20 07:36:56;;;;;;;;;;;10.10;99.90;;;10.33;100.00;100424.03;5112745;28;19924;-59
2022/02/20 07:39:25;;;;;;;;;;;10.10;99.90;;;10.34;100.00;100417.84;5128782;28;19919;-59
2022/02/20 07:41:56;;;;;;;;;;;10.10;99.90;;;10.33;100.00;100417.00;5112781;28;19920;-60
2022/02/20 07:44:25;;;;;;;;;;;10.10;99.90;;;10.38;100.00;100430.16;5111730;28;19920;-60
2022/02/20 07:46:54;;;;;;;;;;;10.10;99.90;;;10.32;100.00;100417.00;5112588;28;19920;-60
2022/02/20 07:49:22;;;;;;;;;;;10.10;99.90;;;10.36;100.00;100427.53;5112653;28;19978;-59
2022/02/20 07:51:50;;;;;;;;;;;10.20;99.90;;;10.37;100.00;100439.88;5112590;28;19955;-59
2022/02/20 07:54:18;;;;;;;;;;;10.20;99.90;;;10.36;100.00;100424.00;5113165;28;19962;-59
2022/02/20 07:56:48;;;;;;;;;;;10.20;99.90;;;10.45;100.00;100439.78;5112868;28;19964;-59
2022/02/20 07:59:16;;;;;;;;;;;10.20;99.90;;;10.44;100.00;100430.97;5112514;28;19919;-59
2022/02/20 08:01:44;;;;;;;;;;;10.20;99.90;;;10.49;100.00;100444.16;5112792;28;19934;-61
2022/02/20 08:04:13;;;;;;;;;;;10.20;99.90;;;10.46;100.00;100446.81;5112249;28;19927;-59
2022/02/20 08:06:41;;;;;;;;;;;10.30;99.90;;;10.48;100.00;100423.88;5112516;28;19919;-59
2022/02/20 08:09:09;;;;;;;;;;;10.20;99.90;;;10.43;100.00;100420.41;5112513;28;19947;-59
2022/02/20 08:11:37;;;;;;;;;;;10.30;99.90;;;10.46;100.00;100423.00;5112703;28;20308;-59
2022/02/20 08:14:07;;;;;;;;;;;10.20;99.90;;;10.46;100.00;100410.69;5112471;28;19955;-65
2022/02/20 08:16:35;;;;;;;;;;;10.20;99.90;;;10.48;100.00;100405.38;5112639;28;19955;-61
2022/02/20 08:19:04;;;;;;;;;;;10.30;99.90;;;10.53;100.00;100409.69;5112443;27;19920;-61
2022/02/20 08:21:32;;;;;;;;;;;10.30;99.90;;;10.54;100.00;100407.94;5112626;28;19973;-61
2022/02/20 08:24:00;;;;;;;;;;;10.40;99.90;;;10.58;100.00;100422.88;5112389;28;20026;-60
2022/02/20 08:26:28;;;;;;;;;;;10.40;99.90;;;10.53;100.00;100425.56;5111280;28;19969;-60
2022/02/20 08:28:56;;;;;;;;;;;10.30;99.90;;;10.53;100.00;100398.28;5112717;28;20034;-60
2022/02/20 08:31:26;;;;;;;;;;;10.30;99.90;;;10.60;100.00;100410.50;5113002;28;19988;-60
2022/02/20 08:33:55;;;;;;;;;;;10.40;99.90;;;10.62;100.00;100427.25;5113267;28;19919;-60
2022/02/20 08:36:23;;;;;;;;;;;10.40;99.90;;;10.59;100.00;100419.31;5114424;28;20019;-61
2022/02/20 08:38:52;;;;;;;;;;;10.40;99.90;;;10.57;100.00;100436.97;5116133;28;20051;-59
2022/02/20 08:41:20;;;;;;;;;;;10.40;99.90;;;10.65;100.00;100441.31;5116072;28;20349;-60
2022/02/20 08:43:48;;;;;;;;;;;10.40;99.90;;;10.60;100.00;100439.59;5116315;28;20162;-60
2022/02/20 08:46:16;;;;;;;;;;;10.40;99.90;;;10.66;100.00;100447.47;5116425;28;20265;-60
2022/02/20 08:48:46;;;;;;;;;;;10.40;99.90;;;10.66;100.00;100450.13;5116450;28;19926;-60
2022/02/20 08:51:15;;;;;;;;;;;10.40;99.90;;;10.63;100.00;100447.50;5131962;27;19919;-62
2022/02/20 08:53:44;;;;;;;;;;;10.50;99.90;;;10.71;100.00;100443.88;5116266;27;20400;-61
2022/02/20 08:56:12;;;;;;;;;;;10.50;99.90;;;10.61;100.00;100414.91;5115704;28;20026;-61
2022/02/20 08:58:41;;;;;;;;;;;10.40;99.90;;;10.56;100.00;100424.66;5148981;27;20381;-61
2022/02/20 09:01:09;;;;;;;;;;;10.50;99.90;;;10.75;100.00;100432.38;5115671;28;20014;-61
2022/02/20 09:03:37;;;;;;;;;;;10.50;99.90;;;10.70;100.00;100428.03;5115644;28;20295;-62
2022/02/20 09:06:06;;;;;;;;;;;10.50;99.90;;;10.78;100.00;100440.25;5115892;28;20015;-61
2022/02/20 09:08:35;;;;;;;;;;;10.50;99.90;;;10.77;100.00;100427.03;5116033;28;20318;-63
2022/02/20 09:11:03;;;;;;;;;;;10.60;99.90;;;10.79;100.00;100419.97;5115456;28;19959;-62
2022/02/20 09:13:31;;;;;;;;;;;10.60;99.90;;;10.79;100.00;100412.03;5115682;28;19919;-62
2022/02/20 09:15:59;;;;;;;;;;;10.60;99.90;;;10.80;100.00;100424.38;5115385;28;20364;-60
2022/02/20 09:18:28;;;;;;;;;;;10.60;99.90;;;10.87;100.00;100421.63;5115252;28;20312;-61
2022/02/20 09:20:56;;;;;;;;;;;10.60;99.90;;;10.88;100.00;100428.66;5114177;28;20011;-65
2022/02/20 09:23:25;;;;;;;;;;;10.70;99.90;;;10.89;100.00;100418.97;5115268;28;19926;-62
2022/02/20 09:25:53;;;;;;;;;;;10.70;99.90;;;10.89;100.00;100393.41;5115449;28;19976;-62
2022/02/20 09:28:22;;;;;;;;;;;10.70;99.90;;;10.87;100.00;100400.47;5116107;28;19919;-61
2022/02/20 09:30:50;;;;;;;;;;;10.70;99.90;;;10.91;100.00;100406.59;5115472;28;19955;-60
2022/02/20 09:33:18;;;;;;;;;;;10.70;99.90;;;10.88;100.00;100401.31;5115301;28;19927;-62
2022/02/20 09:35:46;;;;;;;;;;;10.70;99.90;;;10.91;100.00;100427.75;5114945;28;19920;-61
2022/02/20 09:38:16;;;;;;;;;;;10.70;99.90;;;10.97;100.00;100411.81;5113690;28;20008;-61
2022/02/20 09:40:45;;;;;;;;;;;10.70;99.90;;;10.93;100.00;100415.38;5114880;28;19931;-61
2022/02/20 09:43:14;;;;;;;;;;;10.70;99.90;;;10.95;100.00;100402.13;5114868;28;20027;-60
2022/02/20 09:45:46;;;;;;;;;;;10.70;99.90;;;10.93;100.00;100399.50;5115035;28;19943;-61
2022/02/20 09:48:15;;;;;;;;;;;10.70;99.90;;;10.92;100.00;100389.81;5114197;28;20384;-62
2022/02/20 09:50:43;;;;;;;;;;;10.70;99.90;;;10.94;100.00;100411.81;5115028;28;19924;-59
2022/02/20 09:53:12;;;;;;;;;;;10.70;99.90;;;10.92;100.00;100415.41;5114746;28;19920;-59
2022/02/20 09:55:46;;;;;;;;;;;10.70;99.90;;;10.90;100.00;100420.69;5114634;28;20009;-59
2022/02/20 09:58:16;;;;;;;;;;;10.70;99.90;;;10.85;100.00;100396.09;5113364;28;19977;-60
2022/02/20 10:00:52;;;;;;;;;;;10.70;99.90;;;10.91;100.00;100422.47;5114444;28;19954;-61
2022/02/20 10:03:31;;;;;;;;;;;10.70;99.90;;;10.91;100.00;100411.88;5114363;28;19927;-62
2022/02/20 10:06:00;;;;;;;;;;;10.70;99.90;;;10.77;100.00;100406.78;5114549;28;20292;-60
2022/02/20 10:08:37;;;;;;;;;;;10.60;99.90;;;10.72;100.00;100413.03;5114763;28;20023;-60
2022/02/20 10:11:19;;;;;;;;;;;10.60;99.90;;;10.83;100.00;100417.28;5130278;27;19920;-61
2022/02/20 10:13:48;;;;;;;;;;;10.60;99.90;;;10.81;100.00;100432.28;5114146;28;20409;-62
2022/02/20 10:16:24;;;;;;;;;;;10.60;99.90;;;10.78;100.00;100410.31;5114081;28;19988;-61
2022/02/20 10:19:03;;;;;;;;;;;10.60;99.90;;;10.78;100.00;100402.38;5114047;28;19920;-61
2022/02/20 10:21:50;;;;;;;;;;;10.50;99.90;;;10.72;100.00;100413.03;5114240;28;19927;-61
2022/02/20 10:24:38;;;;;;;;;;;10.60;99.90;;;10.72;100.00;100387.41;5113994;28;20328;-60
2022/02/20 10:27:48;;;;;;;;;;;10.50;99.90;;;10.70;100.00;100401.59;5114043;28;19920;-61
2022/02/20 10:30:24;;;;;;;;;;;10.50;99.90;;;10.72;100.00;100379.47;5147186;27;20395;-60
2022/02/20 10:33:10;;;;;;;;;;;10.50;99.90;;;10.80;100.00;100397.94;5113718;28;19969;-60
2022/02/20 10:35:40;;;;;;;;;;;10.50;99.90;;;10.79;100.00;100407.63;5113736;28;19919;-60
2022/02/20 10:38:10;;;;;;;;;;;10.60;99.90;;;10.69;100.00;100371.59;5114100;27;19972;-60
2022/02/20 10:40:39;;;;;;;;;;;10.60;99.90;;;10.75;100.00;100379.47;5113618;28;20334;-59
2022/02/20 10:43:23;;;;;;;;;;;10.50;99.90;;;10.81;100.00;100381.16;5113796;28;19919;-60
2022/02/20 10:45:52;;;;;;;;;;;10.60;99.90;;;10.77;100.00;100376.78;5113600;28;19962;-60
2022/02/20 10:48:20;;;;;;;;;;;10.60;99.90;;;10.76;100.00;100375.91;5113548;28;19951;-60
2022/02/20 10:50:57;;;;;;;;;;;10.50;99.90;;;10.78;100.00;100378.56;5113636;27;19927;-59
2022/02/20 10:53:31;;;;;;;;;;;10.60;99.90;;;10.75;100.00;100382.09;5113514;28;20033;-60
2022/02/20 10:56:02;;;;;;;;;;;10.50;99.90;;;10.77;100.00;100345.06;5113347;28;19927;-60
2022/02/20 10:58:35;;;;;;;;;;;10.60;99.90;;;10.79;100.00;100353.84;5112971;28;19987;-60
2022/02/20 11:01:04;;;;;;;;;;;10.60;99.90;;;10.79;100.00;100367.06;5113419;28;19961;-60
2022/02/20 11:03:34;;;;;;;;;;;10.60;99.90;;;10.79;100.00;100354.72;5113405;27;19943;-60
2022/02/20 11:06:02;;;;;;;;;;;10.60;99.90;;;10.81;100.00;100328.25;5112941;28;19972;-60
2022/02/20 11:08:31;;;;;;;;;;;10.60;99.90;;;10.81;100.00;100330.88;5113152;28;19993;-60
2022/02/20 11:11:36;;;;;;;;;;;10.60;99.90;;;10.83;100.00;100334.38;5113125;28;19963;-60
2022/02/20 11:13:50;;;;;;;;;;;10.60;99.90;;;10.83;100.00;100315.88;5112982;28;19919;-62
2022/02/20 11:16:18;;;;;;;;;;;10.60;99.90;;;10.85;100.00;100335.25;5113258;28;20035;-60
2022/02/20 11:18:47;;;;;;;;;;;10.60;99.90;;;10.82;100.00;100312.34;5112832;28;20033;-61
2022/02/20 11:21:15;;;;;;;;;;;10.60;99.90;;;10.85;100.00;100328.19;5113194;28;19996;-60
2022/02/20 11:23:45;;;;;;;;;;;10.70;99.90;;;10.85;100.00;100312.31;5129019;27;20333;-61
2022/02/20 11:26:13;;;;;;;;;;;10.70;99.90;;;10.50;100.00;100276.66;5129064;27;19920;-61
2022/02/20 11:28:42;;;;;;;;;;;10.70;99.90;;;10.86;100.00;100340.50;5112850;28;19950;-60
2022/02/20 11:31:12;;;;;;;;;;;10.70;99.90;;;10.87;100.00;100336.97;5111775;28;19919;-60
2022/02/20 11:33:41;;;;;;;;;;;10.70;99.90;;;10.89;100.00;100336.94;5112961;28;19959;-61
2022/02/20 11:36:10;;;;;;;;;;;10.70;99.90;;;10.90;100.00;100321.03;5113466;28;19924;-60